createdAt,value
2022-09-10T00:00:37.457Z,1006.61
2022-09-10T00:01:37.429Z,1006.59
2022-09-10T00:02:37.289Z,1006.64
2022-09-10T00:03:37.349Z,1006.67
2022-09-10T00:04:37.390Z,1006.66
2022-09-10T00:05:37.394Z,1006.67
2022-09-10T00:06:37.412Z,1006.68
2022-09-10T00:07:37.747Z,1006.69
2022-09-10T00:08:37.693Z,1006.74
2022-09-10T00:09:37.516Z,1006.70
2022-09-10T00:10:37.568Z,1006.74
2022-09-10T00:11:37.613Z,1006.77
2022-09-10T00:12:37.622Z,1006.80
2022-09-10T00:13:37.656Z,1006.78
2022-09-10T00:14:37.995Z,1006.80
2022-09-10T00:15:37.724Z,1006.81
2022-09-10T00:16:37.821Z,1006.85
2022-09-10T00:17:37.785Z,1006.82
2022-09-10T00:18:37.864Z,1006.84
2022-09-10T00:19:37.862Z,1006.84
2022-09-10T00:20:37.913Z,1006.79
2022-09-10T00:21:38.267Z,1006.81
2022-09-10T00:22:37.960Z,1006.85
2022-09-10T00:23:38.024Z,1006.82
2022-09-10T00:24:38.041Z,1006.79
2022-09-10T00:25:38.159Z,1006.77
2022-09-10T00:26:38.142Z,1006.83
2022-09-10T00:27:38.122Z,1006.81
2022-09-10T00:28:38.680Z,1006.81
2022-09-10T00:29:38.216Z,1006.82
2022-09-10T00:30:38.239Z,1006.81
2022-09-10T00:31:38.417Z,1006.77
2022-09-10T00:33:38.354Z,1006.79
2022-09-10T00:34:38.373Z,1006.77
2022-09-10T00:35:38.672Z,1006.78
2022-09-10T00:36:38.447Z,1006.76
2022-09-10T00:37:38.461Z,1006.82
2022-09-10T00:38:38.559Z,1006.79
2022-09-10T00:39:38.594Z,1006.75
2022-09-10T00:40:38.573Z,1006.74
2022-09-10T00:41:38.919Z,1006.74
2022-09-10T00:42:38.678Z,1006.75
2022-09-10T00:43:39.014Z,1006.72
2022-09-10T00:44:38.752Z,1006.74
2022-09-10T00:45:38.806Z,1006.71
2022-09-10T00:46:38.802Z,1006.76
2022-09-10T00:47:39.062Z,1006.74
2022-09-10T00:48:38.975Z,1006.71
2022-09-10T00:49:38.889Z,1006.73
2022-09-10T00:50:39.386Z,1006.75
2022-09-10T00:51:38.943Z,1006.72
2022-09-10T00:52:39.980Z,1006.74
2022-09-10T00:53:39.413Z,1006.73
2022-09-10T00:54:39.052Z,1006.66
2022-09-10T00:55:39.072Z,1006.68
2022-09-10T00:56:39.112Z,1006.67
2022-09-10T00:57:39.145Z,1006.67
2022-09-10T00:58:39.433Z,1006.65
2022-09-10T00:59:39.408Z,1006.62
2022-09-10T01:00:39.554Z,1006.67
2022-09-10T01:01:39.390Z,1006.67
2022-09-10T01:02:39.325Z,1006.68
2022-09-10T01:03:39.340Z,1006.69
2022-09-10T01:04:39.432Z,1006.70
2022-09-10T01:05:39.413Z,1006.68
2022-09-10T01:06:39.459Z,1006.68
2022-09-10T01:07:39.732Z,1006.69
2022-09-10T01:08:39.687Z,1006.68
2022-09-10T01:09:39.546Z,1006.66
2022-09-10T01:10:39.586Z,1006.69
2022-09-10T01:11:39.619Z,1006.69
2022-09-10T01:12:39.649Z,1006.69
2022-09-10T01:13:39.680Z,1006.66
2022-09-10T01:14:40.034Z,1006.68
2022-09-10T01:15:39.749Z,1006.65
2022-09-10T01:16:39.787Z,1006.65
2022-09-10T01:17:39.813Z,1006.66
2022-09-10T01:18:39.999Z,1006.63
2022-09-10T01:19:39.938Z,1006.69
2022-09-10T01:20:39.918Z,1006.68
2022-09-10T01:21:40.203Z,1006.68
2022-09-10T01:22:39.990Z,1006.66
2022-09-10T01:23:40.020Z,1006.67
2022-09-10T01:24:40.059Z,1006.65
2022-09-10T01:25:40.094Z,1006.65
2022-09-10T01:26:40.123Z,1006.67
2022-09-10T01:27:40.155Z,1006.67
2022-09-10T01:28:40.490Z,1006.69
2022-09-10T01:29:40.223Z,1006.70
2022-09-10T01:30:40.842Z,1006.70
2022-09-10T01:31:40.386Z,1006.67
2022-09-10T01:32:40.332Z,1006.65
2022-09-10T01:33:40.355Z,1006.66
2022-09-10T01:34:40.394Z,1006.67
2022-09-10T01:35:40.687Z,1006.67
2022-09-10T01:36:40.471Z,1006.68
2022-09-10T01:37:40.501Z,1006.64
2022-09-10T01:38:40.568Z,1006.64
2022-09-10T01:39:40.642Z,1006.65
2022-09-10T01:40:40.599Z,1006.61
2022-09-10T01:41:40.630Z,1006.59
2022-09-10T01:42:40.977Z,1006.63
2022-09-10T01:43:40.701Z,1006.62
2022-09-10T01:44:40.738Z,1006.61
2022-09-10T01:45:40.805Z,1006.57
2022-09-10T01:46:40.816Z,1006.61
2022-09-10T01:47:40.841Z,1006.63
2022-09-10T01:48:40.872Z,1006.67
2022-09-10T01:49:41.153Z,1006.67
2022-09-10T01:50:40.936Z,1006.64
2022-09-10T01:51:40.972Z,1006.66
2022-09-10T01:52:41.002Z,1006.64
2022-09-10T01:53:41.037Z,1006.63
2022-09-10T01:54:41.072Z,1006.62
2022-09-10T01:55:41.109Z,1006.63
2022-09-10T01:56:41.392Z,1006.59
2022-09-10T01:57:41.173Z,1006.62
2022-09-10T01:58:41.291Z,1006.60
2022-09-10T01:59:41.240Z,1006.63
2022-09-10T02:00:41.321Z,1006.62
2022-09-10T02:01:41.577Z,1006.61
2022-09-10T02:02:41.639Z,1006.63
2022-09-10T02:03:41.727Z,1006.55
2022-09-10T02:04:42.163Z,1006.60
2022-09-10T02:05:41.529Z,1006.60
2022-09-10T02:06:41.488Z,1006.57
2022-09-10T02:07:41.520Z,1006.63
2022-09-10T02:08:41.569Z,1006.60
2022-09-10T02:09:41.593Z,1006.60
2022-09-10T02:10:41.993Z,1006.57
2022-09-10T02:11:41.650Z,1006.58
2022-09-10T02:12:41.691Z,1006.58
2022-09-10T02:13:41.733Z,1006.58
2022-09-10T02:14:41.748Z,1006.59
2022-09-10T02:15:41.783Z,1006.56
2022-09-10T02:16:41.865Z,1006.57
2022-09-10T02:17:42.151Z,1006.58
2022-09-10T02:18:41.905Z,1006.56
2022-09-10T02:19:41.947Z,1006.54
2022-09-10T02:20:41.980Z,1006.55
2022-09-10T02:21:41.988Z,1006.53
2022-09-10T02:22:42.037Z,1006.55
2022-09-10T02:23:42.309Z,1006.54
2022-09-10T02:24:42.125Z,1006.55
2022-09-10T02:25:42.211Z,1006.55
2022-09-10T02:26:42.290Z,1006.56
2022-09-10T02:27:42.201Z,1006.58
2022-09-10T02:28:42.222Z,1006.59
2022-09-10T02:29:42.661Z,1006.59
2022-09-10T02:30:42.291Z,1006.59
2022-09-10T02:31:42.452Z,1006.60
2022-09-10T02:32:42.362Z,1006.56
2022-09-10T02:33:42.398Z,1006.58
2022-09-10T02:34:42.448Z,1006.58
2022-09-10T02:35:42.709Z,1006.57
2022-09-10T02:36:42.494Z,1006.54
2022-09-10T02:37:42.524Z,1006.60
2022-09-10T02:38:42.560Z,1006.55
2022-09-10T02:39:42.648Z,1006.55
2022-09-10T02:40:42.634Z,1006.54
2022-09-10T02:41:42.663Z,1006.52
2022-09-10T02:44:43.021Z,1006.52
2022-09-10T02:45:42.842Z,1006.53
2022-09-10T02:46:42.830Z,1006.56
2022-09-10T02:48:42.905Z,1006.56
2022-09-10T02:49:42.931Z,1006.52
2022-09-10T02:50:43.241Z,1006.55
2022-09-10T02:51:43.010Z,1006.55
2022-09-10T02:52:43.041Z,1006.55
2022-09-10T02:53:43.069Z,1006.51
2022-09-10T02:54:43.114Z,1006.52
2022-09-10T02:55:43.141Z,1006.53
2022-09-10T02:56:43.167Z,1006.50
2022-09-10T02:57:43.511Z,1006.52
2022-09-10T02:58:43.255Z,1006.51
2022-09-10T02:59:43.272Z,1006.52
2022-09-10T03:00:43.780Z,1006.51
2022-09-10T03:01:43.408Z,1006.53
2022-09-10T03:02:43.385Z,1006.55
2022-09-10T03:03:43.406Z,1006.50
2022-09-10T03:04:43.742Z,1006.52
2022-09-10T03:05:43.471Z,1006.52
2022-09-10T03:06:43.535Z,1006.51
2022-09-10T03:07:43.549Z,1006.52
2022-09-10T03:08:43.572Z,1006.53
2022-09-10T03:09:43.610Z,1006.56
2022-09-10T03:10:43.643Z,1006.58
2022-09-10T03:11:43.983Z,1006.52
2022-09-10T03:12:43.712Z,1006.55
2022-09-10T03:13:43.755Z,1006.58
2022-09-10T03:14:43.779Z,1006.57
2022-09-10T03:15:43.818Z,1006.56
2022-09-10T03:16:43.906Z,1006.53
2022-09-10T03:17:43.881Z,1006.52
2022-09-10T03:18:44.165Z,1006.52
2022-09-10T03:19:43.959Z,1006.45
2022-09-10T03:20:43.990Z,1006.50
2022-09-10T03:21:44.017Z,1006.51
2022-09-10T03:22:44.074Z,1006.49
2022-09-10T03:23:44.725Z,1006.50
2022-09-10T03:24:44.127Z,1006.53
2022-09-10T03:25:47.907Z,1006.52
2022-09-10T03:26:44.191Z,1006.52
2022-09-10T03:27:44.238Z,1006.50
2022-09-10T03:28:44.255Z,1006.51
2022-09-10T03:29:44.285Z,1006.54
2022-09-10T03:30:44.325Z,1006.50
2022-09-10T03:31:44.401Z,1006.49
2022-09-10T03:32:44.695Z,1006.48
2022-09-10T03:33:44.421Z,1006.52
2022-09-10T03:34:44.455Z,1006.51
2022-09-10T03:35:44.491Z,1006.51
2022-09-10T03:36:44.525Z,1006.51
2022-09-10T03:37:44.565Z,1006.49
2022-09-10T03:38:44.611Z,1006.53
2022-09-10T03:39:44.904Z,1006.53
2022-09-10T03:40:44.656Z,1006.54
2022-09-10T03:41:44.701Z,1006.51
2022-09-10T03:42:44.733Z,1006.49
2022-09-10T03:43:44.759Z,1006.50
2022-09-10T03:44:44.794Z,1006.47
2022-09-10T03:45:44.950Z,1006.48
2022-09-10T03:46:45.112Z,1006.47
2022-09-10T03:47:44.890Z,1006.44
2022-09-10T03:48:44.977Z,1006.48
2022-09-10T03:49:45.012Z,1006.48
2022-09-10T03:50:44.991Z,1006.48
2022-09-10T03:51:45.032Z,1006.53
2022-09-10T03:52:45.064Z,1006.54
2022-09-10T03:53:45.346Z,1006.51
2022-09-10T03:54:45.148Z,1006.50
2022-09-10T03:55:45.210Z,1006.55
2022-09-10T03:56:45.233Z,1006.58
2022-09-10T03:57:45.233Z,1006.57
2022-09-10T03:58:45.265Z,1006.55
2022-09-10T03:59:45.298Z,1006.57
2022-09-10T04:00:45.671Z,1006.57
2022-09-10T04:01:45.489Z,1006.58
2022-09-10T04:02:45.399Z,1006.61
2022-09-10T04:03:45.434Z,1006.58
2022-09-10T04:04:45.489Z,1006.57
2022-09-10T04:05:45.499Z,1006.62
2022-09-10T04:06:45.532Z,1006.60
2022-09-10T04:07:45.869Z,1006.57
2022-09-10T04:08:45.601Z,1006.58
2022-09-10T04:09:45.635Z,1006.61
2022-09-10T04:10:45.729Z,1006.57
2022-09-10T04:11:45.706Z,1006.60
2022-09-10T04:12:45.739Z,1006.63
2022-09-10T04:13:45.779Z,1006.61
2022-09-10T04:14:46.054Z,1006.63
2022-09-10T04:15:45.843Z,1006.60
2022-09-10T04:16:45.917Z,1006.61
2022-09-10T04:17:45.915Z,1006.62
2022-09-10T04:18:45.938Z,1006.63
2022-09-10T04:19:45.975Z,1006.63
2022-09-10T04:20:46.148Z,1006.63
2022-09-10T04:21:46.338Z,1006.60
2022-09-10T04:22:46.076Z,1006.61
2022-09-10T04:23:46.142Z,1006.59
2022-09-10T04:24:46.145Z,1006.60
2022-09-10T04:25:46.314Z,1006.61
2022-09-10T04:26:46.231Z,1006.60
2022-09-10T04:27:46.259Z,1006.58
2022-09-10T04:28:46.530Z,1006.61
2022-09-10T04:29:46.315Z,1006.64
2022-09-10T04:30:46.346Z,1006.63
2022-09-10T04:31:46.423Z,1006.60
2022-09-10T04:32:46.418Z,1006.62
2022-09-10T04:33:46.450Z,1006.63
2022-09-10T04:34:46.733Z,1006.67
2022-09-10T04:35:46.514Z,1006.64
2022-09-10T04:36:46.555Z,1006.64
2022-09-10T04:37:46.581Z,1006.63
2022-09-10T04:38:46.612Z,1006.66
2022-09-10T04:39:46.685Z,1006.66
2022-09-10T04:40:46.987Z,1006.68
2022-09-10T04:41:46.718Z,1006.67
2022-09-10T04:42:46.803Z,1006.68
2022-09-10T04:43:46.985Z,1006.64
2022-09-10T04:44:46.819Z,1006.63
2022-09-10T04:45:46.878Z,1006.69
2022-09-10T04:46:47.135Z,1006.66
2022-09-10T04:47:46.923Z,1006.65
2022-09-10T04:48:46.955Z,1006.64
2022-09-10T04:49:46.984Z,1006.65
2022-09-10T04:51:14.379Z,1006.63
2022-09-10T04:51:47.055Z,1006.66
2022-09-10T04:52:47.091Z,1006.64
2022-09-10T04:53:47.373Z,1006.65
2022-09-10T04:54:47.164Z,1006.61
2022-09-10T04:55:47.195Z,1006.66
2022-09-10T04:56:47.224Z,1006.63
2022-09-10T04:57:47.254Z,1006.63
2022-09-10T04:58:47.314Z,1006.61
2022-09-10T04:59:47.322Z,1006.63
2022-09-10T05:00:47.682Z,1006.60
2022-09-10T05:01:47.501Z,1006.60
2022-09-10T05:02:47.422Z,1006.60
2022-09-10T05:03:47.456Z,1006.62
2022-09-10T05:04:47.492Z,1006.65
2022-09-10T05:05:47.522Z,1006.69
2022-09-10T05:06:47.560Z,1006.71
2022-09-10T05:07:47.845Z,1006.69
2022-09-10T05:08:47.630Z,1006.68
2022-09-10T05:09:47.664Z,1006.72
2022-09-10T05:10:47.698Z,1006.72
2022-09-10T05:11:47.833Z,1006.73
2022-09-10T05:12:47.768Z,1006.70
2022-09-10T05:13:47.806Z,1006.69
2022-09-10T05:14:48.151Z,1006.69
2022-09-10T05:15:47.869Z,1006.70
2022-09-10T05:16:47.985Z,1006.71
2022-09-10T05:17:47.928Z,1006.70
2022-09-10T05:18:47.967Z,1006.73
2022-09-10T05:19:48.004Z,1006.74
2022-09-10T05:20:48.031Z,1006.73
2022-09-10T05:21:48.320Z,1006.75
2022-09-10T05:22:48.107Z,1006.75
2022-09-10T05:23:48.134Z,1006.74
2022-09-10T05:24:48.172Z,1006.74
2022-09-10T05:25:48.201Z,1006.76
2022-09-10T05:26:48.237Z,1006.78
2022-09-10T05:27:48.269Z,1006.74
2022-09-10T05:28:48.603Z,1006.78
2022-09-10T05:29:48.341Z,1006.79
2022-09-10T05:30:51.809Z,1006.76
2022-09-10T05:31:48.429Z,1006.78
2022-09-10T05:32:48.437Z,1006.78
2022-09-10T05:33:48.471Z,1006.77
2022-09-10T05:34:48.505Z,1006.77
2022-09-10T05:35:48.790Z,1006.77
2022-09-10T05:36:48.573Z,1006.78
2022-09-10T05:37:48.608Z,1006.80
2022-09-10T05:38:48.640Z,1006.81
2022-09-10T05:39:48.698Z,1006.82
2022-09-10T05:40:48.710Z,1006.78
2022-09-10T05:41:48.742Z,1006.80
2022-09-10T05:42:49.040Z,1006.79
2022-09-10T05:43:48.811Z,1006.83
2022-09-10T05:44:48.840Z,1006.83
2022-09-10T05:45:48.921Z,1006.83
2022-09-10T05:46:48.929Z,1006.82
2022-09-10T05:47:48.943Z,1006.84
2022-09-10T05:48:48.983Z,1006.86
2022-09-10T05:49:49.274Z,1006.86
2022-09-10T05:50:49.044Z,1006.87
2022-09-10T05:51:49.077Z,1006.89
2022-09-10T05:52:49.117Z,1006.88
2022-09-10T05:53:49.143Z,1006.88
2022-09-10T05:54:49.179Z,1006.90
2022-09-10T05:55:49.210Z,1006.92
2022-09-10T05:56:49.548Z,1006.90
2022-09-10T05:57:49.373Z,1006.91
2022-09-10T05:58:49.317Z,1006.93
2022-09-10T05:59:49.363Z,1006.89
2022-09-10T06:00:49.384Z,1006.94
2022-09-10T06:01:49.429Z,1006.95
2022-09-10T06:02:49.610Z,1006.92
2022-09-10T06:03:49.736Z,1006.94
2022-09-10T06:04:49.520Z,1006.96
2022-09-10T06:05:49.552Z,1006.97
2022-09-10T06:06:49.607Z,1006.98
2022-09-10T06:07:49.616Z,1006.94
2022-09-10T06:08:49.651Z,1006.97
2022-09-10T06:09:49.937Z,1006.98
2022-09-10T06:10:49.724Z,1007.00
2022-09-10T06:11:49.752Z,1006.99
2022-09-10T06:12:49.791Z,1006.99
2022-09-10T06:13:49.827Z,1007.01
2022-09-10T06:14:49.859Z,1007.01
2022-09-10T06:15:50.191Z,1007.05
2022-09-10T06:16:49.998Z,1007.02
2022-09-10T06:17:49.953Z,1007.03
2022-09-10T06:18:50.006Z,1007.04
2022-09-10T06:19:50.023Z,1007.09
2022-09-10T06:20:50.062Z,1007.07
2022-09-10T06:21:50.389Z,1007.08
2022-09-10T06:22:50.128Z,1007.11
2022-09-10T06:23:50.156Z,1007.11
2022-09-10T06:24:50.192Z,1007.12
2022-09-10T06:25:50.274Z,1007.12
2022-09-10T06:26:50.261Z,1007.11
2022-09-10T06:27:50.292Z,1007.15
2022-09-10T06:28:50.581Z,1007.13
2022-09-10T06:29:50.364Z,1007.18
2022-09-10T06:30:50.453Z,1007.17
2022-09-10T06:31:50.431Z,1007.16
2022-09-10T06:32:50.480Z,1007.17
2022-09-10T06:33:50.499Z,1007.20
2022-09-10T06:34:50.550Z,1007.23
2022-09-10T06:35:53.638Z,1007.21
2022-09-10T06:36:50.604Z,1007.25
2022-09-10T06:37:50.631Z,1007.24
2022-09-10T06:38:50.662Z,1007.27
2022-09-10T06:39:50.775Z,1007.26
2022-09-10T06:40:50.736Z,1007.29
2022-09-10T06:41:50.768Z,1007.28
2022-09-10T06:42:51.099Z,1007.25
2022-09-10T06:44:50.871Z,1007.28
2022-09-10T06:45:50.941Z,1007.30
2022-09-10T06:47:30.494Z,1007.33
2022-09-10T06:48:51.694Z,1007.32
2022-09-10T06:49:51.039Z,1007.30
2022-09-10T06:50:51.290Z,1007.34
2022-09-10T06:51:51.127Z,1007.34
2022-09-10T06:52:51.135Z,1007.36
2022-09-10T06:53:51.222Z,1007.36
2022-09-10T06:54:51.227Z,1007.37
2022-09-10T06:55:51.237Z,1007.38
2022-09-10T06:56:51.276Z,1007.39
2022-09-10T06:57:51.305Z,1007.37
2022-09-10T06:58:51.342Z,1007.37
2022-09-10T06:59:51.371Z,1007.41
2022-09-10T07:00:51.450Z,1007.39
2022-09-10T07:01:51.837Z,1007.40
2022-09-10T07:02:51.474Z,1007.38
2022-09-10T07:03:51.759Z,1007.41
2022-09-10T07:04:51.588Z,1007.39
2022-09-10T07:05:51.583Z,1007.44
2022-09-10T07:06:51.635Z,1007.43
2022-09-10T07:07:51.896Z,1007.40
2022-09-10T07:08:51.678Z,1007.38
2022-09-10T07:09:51.712Z,1007.41
2022-09-10T07:10:51.745Z,1007.43
2022-09-10T07:11:51.776Z,1007.44
2022-09-10T07:12:51.817Z,1007.43
2022-09-10T07:13:52.109Z,1007.43
2022-09-10T07:14:51.888Z,1007.43
2022-09-10T07:15:51.947Z,1007.44
2022-09-10T07:16:52.002Z,1007.46
2022-09-10T07:17:52.153Z,1007.50
2022-09-10T07:18:52.027Z,1007.46
2022-09-10T07:19:52.051Z,1007.46
2022-09-10T07:20:52.083Z,1007.47
2022-09-10T07:21:52.195Z,1007.47
2022-09-10T07:22:52.171Z,1007.48
2022-09-10T07:23:52.197Z,1007.51
2022-09-10T07:24:52.268Z,1007.48
2022-09-10T07:25:52.503Z,1007.52
2022-09-10T07:26:52.289Z,1007.49
2022-09-10T07:27:52.327Z,1007.49
2022-09-10T07:28:52.353Z,1007.49
2022-09-10T07:29:52.397Z,1007.48
2022-09-10T07:30:52.457Z,1007.46
2022-09-10T07:31:52.459Z,1007.51
2022-09-10T07:32:52.851Z,1007.55
2022-09-10T07:33:52.538Z,1007.55
2022-09-10T07:34:52.577Z,1007.54
2022-09-10T07:35:52.598Z,1007.55
2022-09-10T07:36:52.840Z,1007.53
2022-09-10T07:37:52.769Z,1007.54
2022-09-10T07:38:52.718Z,1007.60
2022-09-10T07:39:53.108Z,1007.57
2022-09-10T07:40:52.820Z,1007.55
2022-09-10T07:41:52.796Z,1007.60
2022-09-10T07:42:52.833Z,1007.59
2022-09-10T07:43:52.863Z,1007.58
2022-09-10T07:44:52.904Z,1007.58
2022-09-10T07:45:52.993Z,1007.58
2022-09-10T07:46:53.223Z,1007.59
2022-09-10T07:47:52.997Z,1007.56
2022-09-10T07:48:53.047Z,1007.58
2022-09-10T07:49:53.068Z,1007.55
2022-09-10T07:50:53.105Z,1007.57
2022-09-10T07:51:57.692Z,1007.56
2022-09-10T07:52:53.183Z,1007.57
2022-09-10T07:53:53.604Z,1007.57
2022-09-10T07:54:53.250Z,1007.60
2022-09-10T07:55:53.268Z,1007.61
2022-09-10T07:56:53.299Z,1007.61
2022-09-10T07:57:55.434Z,1007.64
2022-09-10T07:58:53.369Z,1007.63
2022-09-10T07:59:53.508Z,1007.58
2022-09-10T08:00:53.694Z,1007.67
2022-09-10T08:01:53.544Z,1007.66
2022-09-10T08:02:53.603Z,1007.67
2022-09-10T08:03:53.548Z,1007.68
2022-09-10T08:04:53.582Z,1007.65
2022-09-10T08:05:53.608Z,1007.66
2022-09-10T08:06:53.746Z,1007.67
2022-09-10T08:07:53.925Z,1007.65
2022-09-10T08:08:53.709Z,1007.70
2022-09-10T08:09:53.774Z,1007.66
2022-09-10T08:10:53.795Z,1007.67
2022-09-10T08:11:53.808Z,1007.68
2022-09-10T08:12:53.845Z,1007.68
2022-09-10T08:13:53.876Z,1007.65
2022-09-10T08:14:54.391Z,1007.71
2022-09-10T08:15:53.972Z,1007.70
2022-09-10T08:16:53.979Z,1007.68
2022-09-10T08:17:54.011Z,1007.70
2022-09-10T08:18:54.045Z,1007.72
2022-09-10T08:19:54.081Z,1007.73
2022-09-10T08:20:54.191Z,1007.73
2022-09-10T08:21:54.398Z,1007.75
2022-09-10T08:22:54.201Z,1007.75
2022-09-10T08:23:54.233Z,1007.78
2022-09-10T08:24:54.254Z,1007.76
2022-09-10T08:25:54.295Z,1007.80
2022-09-10T08:26:54.344Z,1007.76
2022-09-10T08:27:54.651Z,1007.77
2022-09-10T08:28:54.384Z,1007.79
2022-09-10T08:29:54.424Z,1007.81
2022-09-10T08:30:54.544Z,1007.79
2022-09-10T08:31:54.657Z,1007.78
2022-09-10T08:32:54.530Z,1007.81
2022-09-10T08:33:54.863Z,1007.86
2022-09-10T08:34:54.587Z,1007.86
2022-09-10T08:35:54.807Z,1007.88
2022-09-10T08:37:54.806Z,1007.91
2022-09-10T08:38:59.802Z,1007.91
2022-09-10T08:39:54.890Z,1007.92
2022-09-10T08:40:54.801Z,1007.89
2022-09-10T08:41:54.828Z,1007.90
2022-09-10T08:42:54.948Z,1007.91
2022-09-10T08:43:54.896Z,1007.92
2022-09-10T08:44:54.951Z,1007.93
2022-09-10T08:45:55.296Z,1007.92
2022-09-10T08:46:55.011Z,1007.90
2022-09-10T08:47:55.033Z,1007.84
2022-09-10T08:48:55.149Z,1007.85
2022-09-10T08:49:55.143Z,1007.92
2022-09-10T08:50:55.140Z,1007.90
2022-09-10T08:51:55.228Z,1007.88
2022-09-10T08:52:55.505Z,1007.83
2022-09-10T08:53:55.257Z,1007.83
2022-09-10T08:54:55.268Z,1007.86
2022-09-10T08:55:55.302Z,1007.83
2022-09-10T08:56:55.350Z,1007.85
2022-09-10T08:57:55.425Z,1007.82
2022-09-10T08:58:55.469Z,1007.86
2022-09-10T08:59:55.749Z,1007.88
2022-09-10T09:00:55.487Z,1007.92
2022-09-10T09:01:55.589Z,1007.90
2022-09-10T09:02:55.847Z,1007.96
2022-09-10T09:03:55.583Z,1007.93
2022-09-10T09:04:55.709Z,1007.90
2022-09-10T09:05:55.694Z,1007.92
2022-09-10T09:06:55.989Z,1007.87
2022-09-10T09:07:55.770Z,1007.85
2022-09-10T09:08:55.755Z,1007.86
2022-09-10T09:09:55.782Z,1007.88
2022-09-10T09:10:56.072Z,1007.90
2022-09-10T09:11:55.863Z,1007.87
2022-09-10T09:12:55.907Z,1007.87
2022-09-10T09:13:55.964Z,1007.85
2022-09-10T09:14:56.005Z,1007.84
2022-09-10T09:15:56.115Z,1007.89
2022-09-10T09:16:56.085Z,1007.92
2022-09-10T09:17:56.078Z,1007.90
2022-09-10T09:18:56.155Z,1007.88
2022-09-10T09:19:56.540Z,1007.92
2022-09-10T09:20:56.160Z,1007.95
2022-09-10T09:21:56.199Z,1007.89
2022-09-10T09:22:56.237Z,1007.96
2022-09-10T09:24:12.766Z,1007.87
2022-09-10T09:24:56.399Z,1007.82
2022-09-10T09:25:56.590Z,1007.82
2022-09-10T09:26:56.375Z,1007.80
2022-09-10T09:27:56.443Z,1007.84
2022-09-10T09:28:56.439Z,1007.81
2022-09-10T09:29:56.473Z,1007.82
2022-09-10T09:30:56.703Z,1007.83
2022-09-10T09:31:56.796Z,1007.86
2022-09-10T09:32:56.586Z,1007.86
2022-09-10T09:33:56.621Z,1007.89
2022-09-10T09:34:56.659Z,1007.88
2022-09-10T09:35:56.693Z,1007.94
2022-09-10T09:36:56.726Z,1007.86
2022-09-10T09:37:57.056Z,1007.89
2022-09-10T09:38:56.822Z,1007.83
2022-09-10T09:39:56.866Z,1007.82
2022-09-10T09:40:56.850Z,1007.86
2022-09-10T09:41:56.886Z,1007.89
2022-09-10T09:42:56.928Z,1007.89
2022-09-10T09:43:56.953Z,1007.89
2022-09-10T09:44:57.461Z,1007.85
2022-09-10T09:45:57.062Z,1007.84
2022-09-10T09:46:57.235Z,1007.84
2022-09-10T09:47:57.148Z,1007.89
2022-09-10T09:48:57.127Z,1007.86
2022-09-10T09:49:57.227Z,1007.79
2022-09-10T09:50:57.196Z,1007.81
2022-09-10T09:51:57.533Z,1007.82
2022-09-10T09:52:57.274Z,1007.88
2022-09-10T09:54:25.714Z,1007.88
2022-09-10T09:55:13.754Z,1007.91
2022-09-10T09:55:57.371Z,1007.88
2022-09-10T09:56:57.403Z,1007.83
2022-09-10T09:57:57.452Z,1007.84
2022-09-10T09:58:57.780Z,1007.82
2022-09-10T09:59:57.502Z,1007.87
2022-09-10T10:00:57.547Z,1007.84
2022-09-10T10:01:57.680Z,1007.81
2022-09-10T10:02:57.622Z,1007.85
2022-09-10T10:03:57.642Z,1007.83
2022-09-10T10:04:57.693Z,1007.84
2022-09-10T10:05:57.959Z,1007.80
2022-09-10T10:06:57.761Z,1007.75
2022-09-10T10:07:57.777Z,1007.73
2022-09-10T10:08:57.817Z,1007.75
2022-09-10T10:09:57.848Z,1007.70
2022-09-10T10:10:57.878Z,1007.65
2022-09-10T10:11:57.925Z,1007.66
2022-09-10T10:12:58.247Z,1007.65
2022-09-10T10:13:57.991Z,1007.67
2022-09-10T10:14:58.017Z,1007.68
2022-09-10T10:15:58.076Z,1007.70
2022-09-10T10:17:00.691Z,1007.71
2022-09-10T10:17:58.125Z,1007.71
2022-09-10T10:18:58.177Z,1007.69
2022-09-10T10:20:58.473Z,1007.71
2022-09-10T10:21:58.256Z,1007.68
2022-09-10T10:22:58.293Z,1007.65
2022-09-10T10:23:58.326Z,1007.67
2022-09-10T10:24:58.359Z,1007.69
2022-09-10T10:25:58.391Z,1007.70
2022-09-10T10:26:58.433Z,1007.71
2022-09-10T10:27:58.714Z,1007.73
2022-09-10T10:28:58.506Z,1007.70
2022-09-10T10:29:58.551Z,1007.73
2022-09-10T10:30:58.626Z,1007.72
2022-09-10T10:32:01.542Z,1007.70
2022-09-10T10:32:58.644Z,1007.74
2022-09-10T10:33:58.668Z,1007.72
2022-09-10T10:34:58.969Z,1007.85
2022-09-10T10:35:58.756Z,1007.80
2022-09-10T10:36:58.770Z,1007.83
2022-09-10T10:37:58.805Z,1007.81
2022-09-10T10:38:58.838Z,1007.76
2022-09-10T10:39:58.965Z,1007.71
2022-09-10T10:40:58.908Z,1007.72
2022-09-10T10:41:59.195Z,1007.70
2022-09-10T10:42:58.989Z,1007.72
2022-09-10T10:43:59.040Z,1007.67
2022-09-10T10:44:59.042Z,1007.67
2022-09-10T10:45:59.229Z,1007.66
2022-09-10T10:46:59.115Z,1007.66
2022-09-10T10:47:59.150Z,1007.63
2022-09-10T10:49:03.557Z,1007.65
2022-09-10T10:49:59.215Z,1007.62
2022-09-10T10:50:59.277Z,1007.57
2022-09-10T10:51:59.356Z,1007.56
2022-09-10T10:52:59.365Z,1007.64
2022-09-10T10:53:59.456Z,1007.61
2022-09-10T10:54:59.388Z,1007.66
2022-09-10T10:55:59.728Z,1007.60
2022-09-10T10:56:59.465Z,1007.64
2022-09-10T10:57:59.491Z,1007.54
2022-09-10T10:58:59.544Z,1007.54
2022-09-10T10:59:59.556Z,1007.65
2022-09-10T11:00:59.595Z,1007.58
2022-09-10T11:01:59.713Z,1007.56
2022-09-10T11:02:59.911Z,1007.61
2022-09-10T11:03:59.696Z,1007.65
2022-09-10T11:04:59.728Z,1007.64
2022-09-10T11:05:59.759Z,1007.59
2022-09-10T11:06:59.816Z,1007.61
2022-09-10T11:07:59.827Z,1007.68
2022-09-10T11:08:59.866Z,1007.67
2022-09-10T11:09:59.901Z,1007.65
2022-09-10T11:10:59.951Z,1007.64
2022-09-10T11:11:59.967Z,1007.65
2022-09-10T11:13:00.008Z,1007.68
2022-09-10T11:14:00.037Z,1007.69
2022-09-10T11:15:00.077Z,1007.72
2022-09-10T11:16:00.372Z,1007.73
2022-09-10T11:17:00.144Z,1007.72
2022-09-10T11:18:00.170Z,1007.69
2022-09-10T11:19:00.206Z,1007.71
2022-09-10T11:20:24.716Z,1007.74
2022-09-10T11:21:00.282Z,1007.74
2022-09-10T11:22:00.564Z,1007.70
2022-09-10T11:23:00.360Z,1007.69
2022-09-10T11:24:00.411Z,1007.74
2022-09-10T11:25:00.428Z,1007.69
2022-09-10T11:26:00.450Z,1007.60
2022-09-10T11:27:00.484Z,1007.69
2022-09-10T11:28:00.766Z,1007.70
2022-09-10T11:29:00.547Z,1007.64
2022-09-10T11:30:00.583Z,1007.64
2022-09-10T11:31:00.676Z,1007.74
2022-09-10T11:32:00.724Z,1007.73
2022-09-10T11:33:00.693Z,1007.68
2022-09-10T11:34:00.721Z,1007.61
2022-09-10T11:35:01.005Z,1007.63
2022-09-10T11:36:00.784Z,1007.65
2022-09-10T11:37:00.835Z,1007.67
2022-09-10T11:38:00.925Z,1007.61
2022-09-10T11:39:00.968Z,1007.64
2022-09-10T11:40:00.951Z,1007.71
2022-09-10T11:41:00.963Z,1007.71
2022-09-10T11:42:00.999Z,1007.66
2022-09-10T11:43:01.031Z,1007.69
2022-09-10T11:44:01.062Z,1007.61
2022-09-10T11:45:01.109Z,1007.59
2022-09-10T11:46:01.139Z,1007.69
2022-09-10T11:47:01.163Z,1007.76
2022-09-10T11:48:01.448Z,1007.79
2022-09-10T11:49:01.234Z,1007.75
2022-09-10T11:50:01.275Z,1007.71
2022-09-10T11:51:01.300Z,1007.72
2022-09-10T11:52:01.332Z,1007.73
2022-09-10T11:53:01.374Z,1007.73
2022-09-10T11:54:01.429Z,1007.71
2022-09-10T11:55:02.355Z,1007.71
2022-09-10T11:56:01.725Z,1007.66
2022-09-10T11:57:01.779Z,1007.75
2022-09-10T11:58:01.605Z,1007.78
2022-09-10T11:59:01.600Z,1007.75
2022-09-10T12:00:01.610Z,1007.86
2022-09-10T12:01:01.717Z,1007.81
2022-09-10T12:02:02.034Z,1007.77
2022-09-10T12:03:01.905Z,1007.72
2022-09-10T12:04:01.853Z,1007.69
2022-09-10T12:05:01.785Z,1007.72
2022-09-10T12:06:01.833Z,1007.65
2022-09-10T12:07:01.858Z,1007.65
2022-09-10T12:08:01.889Z,1007.70
2022-09-10T12:09:02.221Z,1007.68
2022-09-10T12:10:01.985Z,1007.74
2022-09-10T12:11:02.001Z,1007.73
2022-09-10T12:12:02.104Z,1007.70
2022-09-10T12:13:02.079Z,1007.78
2022-09-10T12:14:02.087Z,1007.66